createdAt,value
2023-05-11T00:00:17.267Z,5.83
2023-05-11T00:02:45.887Z,5.47
2023-05-11T00:05:15.595Z,5.67
2023-05-11T00:07:43.450Z,5.27
2023-05-11T00:10:12.047Z,5.40
2023-05-11T00:12:39.926Z,5.40
2023-05-11T00:15:08.738Z,5.20
2023-05-11T00:17:36.670Z,6.27
2023-05-11T00:20:04.666Z,5.37
2023-05-11T00:22:33.882Z,5.83
2023-05-11T00:25:01.763Z,5.30
2023-05-11T00:27:29.649Z,5.67
2023-05-11T00:29:57.993Z,5.33
2023-05-11T00:32:26.271Z,5.57
2023-05-11T00:34:54.319Z,5.53
2023-05-11T00:37:22.153Z,5.73
2023-05-11T00:39:51.564Z,6.43
2023-05-11T00:42:19.440Z,5.40
2023-05-11T00:44:47.340Z,5.53
2023-05-11T00:47:15.267Z,5.33
2023-05-11T00:49:43.957Z,5.17
2023-05-11T00:52:11.866Z,5.37
2023-05-11T00:54:41.621Z,5.43
2023-05-11T00:57:11.040Z,4.60
2023-05-11T00:59:39.052Z,4.50
2023-05-11T01:02:07.389Z,4.60
2023-05-11T01:04:35.946Z,4.40
2023-05-11T01:07:11.104Z,4.80
2023-05-11T01:09:52.359Z,6.60
2023-05-11T01:12:41.706Z,4.30
2023-05-11T01:15:13.052Z,4.10
2023-05-11T01:17:49.760Z,4.50
2023-05-11T01:20:22.652Z,4.77
2023-05-11T01:23:04.064Z,4.03
2023-05-11T01:25:54.319Z,5.70
2023-05-11T01:28:43.678Z,4.70
2023-05-11T01:31:14.754Z,4.40
2023-05-11T01:33:48.848Z,4.27
2023-05-11T01:36:19.134Z,4.60
2023-05-11T01:38:49.900Z,4.03
2023-05-11T01:41:22.039Z,4.27
2023-05-11T01:43:56.983Z,4.50
2023-05-11T01:46:28.448Z,4.43
2023-05-11T01:48:59.477Z,4.67
2023-05-11T01:51:30.223Z,4.10
2023-05-11T01:54:00.804Z,4.23
2023-05-11T01:56:30.318Z,4.60
2023-05-11T01:59:00.314Z,6.00
2023-05-11T02:01:30.740Z,4.03
2023-05-11T02:04:02.065Z,4.80
2023-05-11T02:06:32.611Z,4.67
2023-05-11T02:09:01.766Z,4.33
2023-05-11T02:11:32.221Z,4.37
2023-05-11T02:14:01.918Z,4.53
2023-05-11T02:16:33.315Z,5.07
2023-05-11T02:19:01.474Z,4.37
2023-05-11T02:21:31.702Z,4.20
2023-05-11T02:24:00.773Z,4.10
2023-05-11T02:26:28.701Z,4.73
2023-05-11T02:28:56.881Z,5.27
2023-05-11T02:31:28.875Z,4.10
2023-05-11T02:34:05.582Z,4.37
2023-05-11T02:36:35.176Z,4.40
2023-05-11T02:39:08.128Z,3.57
2023-05-11T02:41:42.950Z,3.90
2023-05-11T02:44:15.182Z,5.00
2023-05-11T02:46:44.910Z,3.80
2023-05-11T02:49:15.939Z,4.00
2023-05-11T02:51:46.147Z,4.27
2023-05-11T02:54:17.003Z,3.43
2023-05-11T02:56:45.987Z,4.07
2023-05-11T02:59:14.530Z,3.70
2023-05-11T03:01:43.071Z,3.60
2023-05-11T03:04:11.089Z,4.97
2023-05-11T03:06:40.538Z,4.23
2023-05-11T03:09:10.173Z,4.80
2023-05-11T03:11:38.888Z,4.20
2023-05-11T03:14:07.468Z,4.53
2023-05-11T03:16:38.303Z,4.30
2023-05-11T03:19:08.266Z,4.07
2023-05-11T03:21:38.469Z,4.37
2023-05-11T03:24:09.693Z,4.77
2023-05-11T03:26:38.482Z,7.27
2023-05-11T03:29:08.734Z,4.30
2023-05-11T03:31:36.756Z,4.90
2023-05-11T03:34:04.694Z,4.47
2023-05-11T03:36:33.766Z,6.13
2023-05-11T03:39:03.068Z,5.17
2023-05-11T03:41:35.166Z,5.10
2023-05-11T03:44:06.718Z,5.50
2023-05-11T03:46:40.061Z,6.97
2023-05-11T03:49:10.800Z,5.47
2023-05-11T03:51:41.397Z,4.90
2023-05-11T03:54:09.621Z,5.10
2023-05-11T03:56:38.935Z,5.87
2023-05-11T03:59:06.973Z,5.77
2023-05-11T04:01:35.523Z,6.80
2023-05-11T04:04:03.486Z,6.33
2023-05-11T04:06:31.512Z,5.70
2023-05-11T04:08:59.536Z,5.67
2023-05-11T04:11:30.013Z,6.60
2023-05-11T04:13:59.460Z,6.20
2023-05-11T04:16:27.316Z,5.87
2023-05-11T04:18:55.222Z,5.50
2023-05-11T04:21:23.188Z,5.63
2023-05-11T04:23:51.018Z,6.10
2023-05-11T04:26:18.899Z,6.17
2023-05-11T04:28:46.740Z,5.87
2023-05-11T04:31:16.217Z,7.77
2023-05-11T04:33:44.149Z,5.83
2023-05-11T04:36:12.005Z,6.53
2023-05-11T04:38:39.932Z,5.90
2023-05-11T04:41:08.909Z,5.70
2023-05-11T04:43:36.840Z,5.87
2023-05-11T04:46:04.750Z,5.27
2023-05-11T04:48:34.040Z,5.93
2023-05-11T04:51:05.414Z,5.60
2023-05-11T04:53:33.455Z,5.97
2023-05-11T04:56:01.311Z,5.67
2023-05-11T04:58:29.304Z,6.67
2023-05-11T05:00:57.178Z,5.73
2023-05-11T05:03:25.106Z,6.13
2023-05-11T05:05:54.381Z,5.43
2023-05-11T05:08:22.652Z,5.27
2023-05-11T05:10:50.534Z,5.70
2023-05-11T05:13:18.429Z,5.23
2023-05-11T05:15:46.255Z,6.03
2023-05-11T05:18:14.264Z,5.77
2023-05-11T05:20:42.149Z,6.17
2023-05-11T05:23:11.383Z,6.07
2023-05-11T05:25:39.200Z,5.33
2023-05-11T05:28:07.034Z,5.53
2023-05-11T05:30:36.376Z,5.63
2023-05-11T05:33:04.342Z,10.77
2023-05-11T05:35:32.237Z,5.00
2023-05-11T05:38:00.131Z,5.23
2023-05-11T05:40:32.242Z,5.90
2023-05-11T05:43:00.206Z,5.93
2023-05-11T05:45:28.030Z,6.20
2023-05-11T05:47:56.555Z,6.40
2023-05-11T05:50:24.405Z,5.90
2023-05-11T05:52:52.224Z,5.80
2023-05-11T05:55:20.151Z,6.23
2023-05-11T05:57:49.394Z,5.30
2023-05-11T06:00:18.211Z,5.97
2023-05-11T06:02:46.388Z,5.70
2023-05-11T06:05:14.324Z,6.03
2023-05-11T06:07:43.005Z,5.60
2023-05-11T06:10:11.158Z,6.30
2023-05-11T06:12:39.010Z,5.57
2023-05-11T06:15:09.597Z,6.30
2023-05-11T06:17:37.539Z,6.63
2023-05-11T06:20:06.270Z,5.83
2023-05-11T06:22:34.117Z,6.40
2023-05-11T06:25:01.994Z,6.43
2023-05-11T06:27:29.840Z,5.97
2023-05-11T06:29:57.823Z,6.47
2023-05-11T06:32:27.348Z,6.73
2023-05-11T06:34:55.189Z,6.13
2023-05-11T06:37:23.034Z,6.60
2023-05-11T06:39:50.871Z,6.43
2023-05-11T06:42:18.758Z,5.67
2023-05-11T06:44:46.711Z,5.40
2023-05-11T06:47:14.676Z,5.90
2023-05-11T06:49:44.304Z,6.17
2023-05-11T06:52:12.207Z,6.03
2023-05-11T06:54:40.072Z,6.80
2023-05-11T06:57:08.081Z,5.83
2023-05-11T06:59:35.986Z,5.03
2023-05-11T07:02:03.883Z,4.63
2023-05-11T07:04:31.781Z,5.40
2023-05-11T07:07:01.052Z,5.70
2023-05-11T07:09:28.955Z,4.40
2023-05-11T07:11:56.872Z,5.07
2023-05-11T07:14:24.905Z,4.33
2023-05-11T07:16:53.264Z,4.80
2023-05-11T07:19:21.179Z,4.93
2023-05-11T07:21:49.058Z,4.23
2023-05-11T07:24:18.289Z,4.47
2023-05-11T07:26:46.169Z,4.07
2023-05-11T07:29:13.988Z,3.70
2023-05-11T07:31:43.025Z,3.90
2023-05-11T07:34:10.931Z,4.53
2023-05-11T07:36:38.802Z,3.70
2023-05-11T07:39:06.690Z,3.60
2023-05-11T07:41:35.970Z,4.10
2023-05-11T07:44:03.840Z,4.50
2023-05-11T07:46:31.745Z,5.13
2023-05-11T07:49:07.533Z,4.30
2023-05-11T07:51:43.493Z,4.13
2023-05-11T07:54:11.410Z,4.17
2023-05-11T07:56:40.653Z,4.37
2023-05-11T07:59:08.530Z,4.67
2023-05-11T08:01:36.785Z,4.80
2023-05-11T08:04:04.893Z,4.80
2023-05-11T08:06:33.012Z,5.67
2023-05-11T08:09:00.970Z,5.43
2023-05-11T08:11:28.831Z,5.00
2023-05-11T08:13:58.577Z,4.47
2023-05-11T08:16:26.538Z,4.77
2023-05-11T08:18:54.513Z,5.13
2023-05-11T08:21:22.378Z,4.90
2023-05-11T08:23:50.202Z,4.70
2023-05-11T08:26:18.429Z,5.17
2023-05-11T08:28:46.303Z,4.77
2023-05-11T08:31:15.550Z,4.43
2023-05-11T08:33:43.595Z,4.90
2023-05-11T08:36:13.272Z,5.10
2023-05-11T08:38:41.156Z,5.20
2023-05-11T08:41:09.160Z,5.27
2023-05-11T08:43:37.105Z,5.00
2023-05-11T08:46:08.345Z,5.37
2023-05-11T08:48:38.189Z,5.80
2023-05-11T08:51:06.650Z,5.50
2023-05-11T08:53:34.501Z,5.50
2023-05-11T08:56:06.889Z,5.23
2023-05-11T08:58:37.331Z,5.63
2023-05-11T09:01:06.687Z,5.53
2023-05-11T09:03:38.086Z,6.10
2023-05-11T09:06:08.324Z,5.53
2023-05-11T09:08:38.530Z,5.57
2023-05-11T09:11:07.335Z,5.20
2023-05-11T09:13:35.441Z,5.30
2023-05-11T09:16:04.006Z,4.93
2023-05-11T09:18:31.997Z,4.83
2023-05-11T09:21:02.090Z,4.80
2023-05-11T09:23:29.939Z,4.07
2023-05-11T09:25:57.878Z,4.17
2023-05-11T09:28:26.955Z,4.33
2023-05-11T09:30:55.249Z,3.80
2023-05-11T09:33:25.442Z,4.23
2023-05-11T09:35:53.890Z,4.17
2023-05-11T09:38:26.331Z,4.40
2023-05-11T09:40:55.622Z,4.90
2023-05-11T09:43:25.924Z,4.80
2023-05-11T09:45:55.605Z,4.43
2023-05-11T09:48:31.880Z,2.40
2023-05-11T09:51:02.683Z,1.90
2023-05-11T09:53:41.066Z,2.20
2023-05-11T09:56:09.386Z,2.20
2023-05-11T09:58:48.134Z,1.80
2023-05-11T10:01:16.684Z,1.53
2023-05-11T10:03:49.039Z,1.30
2023-05-11T10:06:19.944Z,2.10
2023-05-11T10:08:50.088Z,1.60
2023-05-11T10:11:21.619Z,2.03
2023-05-11T10:13:51.392Z,2.20
2023-05-11T10:16:21.609Z,2.30
2023-05-11T10:18:50.023Z,2.10
2023-05-11T10:21:18.164Z,1.90
2023-05-11T10:23:46.549Z,2.03
2023-05-11T10:26:16.457Z,1.60
2023-05-11T10:28:44.358Z,2.17
2023-05-11T10:31:13.087Z,1.70
2023-05-11T10:33:42.910Z,1.50
2023-05-11T10:36:12.309Z,1.50
2023-05-11T10:38:40.444Z,2.50
2023-05-11T10:41:23.264Z,8.57
2023-05-11T10:44:20.049Z,1.43
2023-05-11T10:47:09.835Z,1.10
2023-05-11T10:50:05.357Z,1.87
2023-05-11T10:52:54.383Z,1.10
2023-05-11T10:55:36.470Z,2.33
2023-05-11T10:58:10.477Z,2.30
2023-05-11T11:01:19.236Z,1.73
2023-05-11T11:03:58.442Z,1.23
2023-05-11T11:06:28.514Z,1.13
2023-05-11T11:08:58.946Z,1.40
2023-05-11T11:11:31.648Z,1.20
2023-05-11T11:14:03.846Z,1.33
2023-05-11T11:16:31.993Z,1.50
2023-05-11T11:19:36.845Z,1.37
2023-05-11T11:22:05.161Z,1.30
2023-05-11T11:24:49.390Z,1.53
2023-05-11T11:27:17.278Z,2.53
2023-05-11T11:30:28.574Z,1.43
2023-05-11T11:33:17.437Z,0.90
2023-05-11T11:35:49.843Z,1.20
2023-05-11T11:38:19.595Z,1.83
2023-05-11T11:40:51.667Z,1.20
2023-05-11T11:43:21.530Z,1.87
2023-05-11T11:45:54.564Z,2.20
2023-05-11T11:48:24.838Z,0.83
2023-05-11T11:51:04.783Z,1.60
2023-05-11T11:54:00.901Z,0.97
2023-05-11T11:56:40.341Z,1.77
2023-05-11T11:59:11.893Z,1.10
2023-05-11T12:01:41.819Z,0.70
2023-05-11T12:04:51.891Z,0.63
2023-05-11T12:07:23.078Z,0.50
2023-05-11T12:09:52.965Z,0.70
2023-05-11T12:12:21.814Z,0.70
2023-05-11T12:14:49.995Z,1.13
2023-05-11T12:17:26.963Z,0.87
2023-05-11T12:19:55.348Z,1.10
2023-05-11T12:22:24.520Z,1.20
2023-05-11T12:24:52.723Z,0.90
2023-05-11T12:27:20.805Z,1.03
2023-05-11T12:29:51.870Z,1.30
2023-05-11T12:32:29.193Z,1.13
2023-05-11T12:35:01.718Z,1.20
2023-05-11T12:37:30.689Z,1.13
2023-05-11T12:39:59.466Z,0.80
2023-05-11T12:42:27.814Z,1.13
2023-05-11T12:44:56.829Z,1.43
2023-05-11T12:47:24.978Z,1.00
2023-05-11T12:49:54.331Z,2.67
2023-05-11T12:52:24.963Z,1.37
2023-05-11T12:54:53.872Z,1.50
2023-05-11T12:57:26.068Z,1.50
2023-05-11T13:00:12.496Z,1.40
2023-05-11T13:02:52.557Z,2.03
2023-05-11T13:05:28.196Z,1.70
2023-05-11T13:08:00.312Z,1.80
2023-05-11T13:10:28.555Z,3.37
2023-05-11T13:12:57.110Z,2.10
2023-05-11T13:15:28.645Z,2.63
2023-05-11T13:17:58.725Z,2.20
2023-05-11T13:20:29.666Z,1.80
2023-05-11T13:23:06.347Z,1.90
2023-05-11T13:25:35.033Z,2.10
2023-05-11T13:28:03.075Z,2.47
2023-05-11T13:30:33.404Z,2.20
2023-05-11T13:33:02.860Z,2.43
2023-05-11T13:35:32.203Z,2.33
2023-05-11T13:38:00.294Z,2.80
2023-05-11T13:40:28.157Z,5.73
2023-05-11T13:42:56.795Z,2.87
2023-05-11T13:45:24.769Z,2.80
2023-05-11T13:47:52.690Z,2.80
2023-05-11T13:50:20.667Z,3.37
2023-05-11T13:52:49.928Z,3.13
2023-05-11T13:55:18.133Z,3.60
2023-05-11T13:57:46.650Z,3.33
2023-05-11T14:00:16.105Z,3.23
2023-05-11T14:02:45.136Z,3.47
2023-05-11T14:05:13.104Z,3.90
2023-05-11T14:07:46.860Z,4.10
2023-05-11T14:10:17.627Z,3.70
2023-05-11T14:12:45.893Z,3.40
2023-05-11T14:15:13.960Z,3.80
2023-05-11T14:17:43.286Z,4.37
2023-05-11T14:20:12.932Z,3.60
2023-05-11T14:22:41.476Z,3.50
2023-05-11T14:25:10.004Z,3.80
2023-05-11T14:27:39.309Z,3.33
2023-05-11T14:30:08.529Z,3.80
2023-05-11T14:32:36.496Z,4.20
2023-05-11T14:35:04.490Z,3.23
2023-05-11T14:37:32.501Z,3.73
2023-05-11T14:40:00.952Z,3.80
2023-05-11T14:42:29.723Z,3.17
2023-05-11T14:44:59.023Z,3.50
2023-05-11T14:47:27.009Z,3.47
2023-05-11T14:49:55.075Z,3.45
2023-05-11T14:52:22.946Z,3.23
2023-05-11T14:54:50.994Z,3.43
2023-05-11T14:57:18.997Z,3.30
2023-05-11T14:59:58.535Z,3.53
2023-05-11T15:02:29.966Z,3.60
2023-05-11T15:04:57.944Z,4.17
2023-05-11T15:07:26.776Z,3.77
2023-05-11T15:09:55.259Z,3.50
2023-05-11T15:12:23.198Z,3.63
2023-05-11T15:14:51.192Z,3.80
2023-05-11T15:17:19.080Z,4.10
2023-05-11T15:19:48.438Z,3.40
2023-05-11T15:22:17.387Z,3.67
2023-05-11T15:24:45.483Z,3.90
2023-05-11T15:27:13.416Z,4.93
2023-05-11T15:29:41.364Z,3.97
2023-05-11T15:32:09.550Z,3.60
2023-05-11T15:34:44.527Z,4.27
2023-05-11T15:37:24.804Z,4.63
2023-05-11T15:39:52.822Z,5.10
2023-05-11T15:42:20.970Z,4.07
2023-05-11T15:44:48.926Z,4.10
2023-05-11T15:47:16.941Z,5.17
2023-05-11T15:49:44.834Z,4.67
2023-05-11T15:52:12.727Z,4.37
2023-05-11T15:54:42.360Z,4.73
2023-05-11T15:57:10.480Z,4.10
2023-05-11T15:59:38.598Z,4.33
2023-05-11T16:02:06.654Z,3.70
2023-05-11T16:04:34.674Z,4.00
2023-05-11T16:07:02.564Z,3.97
2023-05-11T16:09:30.398Z,4.53
2023-05-11T16:12:00.060Z,4.40
2023-05-11T16:14:28.000Z,4.60
2023-05-11T16:16:56.183Z,5.00
2023-05-11T16:19:24.322Z,4.97
2023-05-11T16:21:52.200Z,5.33
2023-05-11T16:24:20.403Z,5.37
2023-05-11T16:26:48.376Z,4.20
2023-05-11T16:29:18.509Z,3.90
2023-05-11T16:31:48.311Z,3.93
2023-05-11T16:34:16.251Z,4.30
2023-05-11T16:36:44.766Z,4.00
2023-05-11T16:39:13.246Z,4.20
2023-05-11T16:41:41.376Z,4.07
2023-05-11T16:44:09.384Z,3.80
2023-05-11T16:46:38.785Z,3.93
2023-05-11T16:49:07.209Z,3.80
2023-05-11T16:51:35.129Z,4.10
2023-05-11T16:54:02.973Z,4.33
2023-05-11T16:56:30.870Z,4.30
2023-05-11T16:58:59.201Z,3.90
2023-05-11T17:01:27.187Z,4.53
2023-05-11T17:03:56.577Z,4.87
2023-05-11T17:06:26.754Z,4.70
2023-05-11T17:08:54.719Z,4.40
2023-05-11T17:11:22.768Z,4.87
2023-05-11T17:13:50.884Z,4.33
2023-05-11T17:16:19.523Z,5.27
2023-05-11T17:18:47.795Z,5.23
2023-05-11T17:21:17.262Z,4.27
2023-05-11T17:23:45.908Z,4.93
2023-05-11T17:26:14.128Z,4.60
2023-05-11T17:28:42.048Z,5.17
2023-05-11T17:31:11.702Z,4.40
2023-05-11T17:33:40.659Z,4.30
2023-05-11T17:36:09.824Z,4.10
2023-05-11T17:38:39.489Z,5.27
2023-05-11T17:41:07.747Z,4.87
2023-05-11T17:43:37.965Z,5.40
2023-05-11T17:46:07.217Z,5.57
2023-05-11T17:48:35.294Z,5.07
2023-05-11T17:51:03.231Z,5.57
2023-05-11T17:53:31.249Z,4.87
2023-05-11T17:56:01.402Z,5.20
2023-05-11T17:58:29.269Z,4.80
2023-05-11T18:00:57.258Z,5.17
2023-05-11T18:03:25.369Z,4.67
2023-05-11T18:05:53.383Z,4.97
2023-05-11T18:08:21.538Z,5.40
2023-05-11T18:10:49.417Z,5.17
2023-05-11T18:13:19.709Z,6.30
2023-05-11T18:15:48.115Z,6.90
2023-05-11T18:18:16.200Z,8.03
2023-05-11T18:20:46.440Z,7.83
2023-05-11T18:23:14.984Z,5.93
2023-05-11T18:25:43.377Z,7.00
2023-05-11T18:28:11.256Z,6.90
2023-05-11T18:30:40.562Z,7.20
2023-05-11T18:33:08.520Z,7.70
2023-05-11T18:35:39.116Z,8.03
2023-05-11T18:38:07.470Z,8.00
2023-05-11T18:40:36.188Z,8.20
2023-05-11T18:43:04.202Z,8.17
2023-05-11T18:45:34.006Z,7.73
2023-05-11T18:48:03.795Z,8.43
2023-05-11T18:50:31.818Z,8.53
2023-05-11T18:52:59.830Z,8.87
2023-05-11T18:55:30.901Z,9.47
2023-05-11T18:58:00.357Z,9.77
2023-05-11T19:00:28.298Z,10.47
2023-05-11T19:02:56.259Z,9.37
2023-05-11T19:05:25.581Z,8.20
2023-05-11T19:07:53.474Z,7.60
2023-05-11T19:10:23.936Z,7.83
2023-05-11T19:12:51.805Z,7.83
2023-05-11T19:15:19.878Z,7.07
2023-05-11T19:17:47.781Z,7.00
2023-05-11T19:20:15.785Z,7.47
2023-05-11T19:22:44.997Z,7.23
2023-05-11T19:25:12.944Z,6.37
2023-05-11T19:27:40.992Z,6.73
2023-05-11T19:30:10.248Z,7.00
2023-05-11T19:32:38.438Z,7.43
2023-05-11T19:35:06.652Z,7.73
2023-05-11T19:37:35.150Z,7.97
2023-05-11T19:40:37.969Z,8.37
2023-05-11T19:42:53.921Z,8.93
2023-05-11T19:45:22.049Z,8.80
2023-05-11T19:47:49.988Z,9.27
2023-05-11T19:50:19.334Z,9.40
2023-05-11T19:52:48.453Z,8.90
2023-05-11T19:55:17.704Z,7.83
2023-05-11T19:57:45.558Z,8.53
2023-05-11T20:00:14.100Z,7.90
2023-05-11T20:02:42.039Z,8.43
2023-05-11T20:05:10.739Z,7.63
2023-05-11T20:07:38.949Z,7.67
2023-05-11T20:10:07.951Z,8.50
2023-05-11T20:12:38.051Z,8.73
2023-05-11T20:15:07.133Z,8.03
2023-05-11T20:17:35.173Z,8.60
2023-05-11T20:20:03.955Z,8.23
2023-05-11T20:22:32.528Z,8.77
2023-05-11T20:25:00.634Z,9.60
2023-05-11T20:27:28.472Z,9.33
2023-05-11T20:29:57.728Z,9.20
2023-05-11T20:32:25.723Z,9.47
2023-05-11T20:34:53.647Z,9.90
2023-05-11T20:37:22.834Z,12.07
2023-05-11T20:39:50.726Z,13.73
2023-05-11T20:42:18.532Z,10.87
2023-05-11T20:44:49.571Z,10.10
2023-05-11T20:47:19.695Z,9.67
2023-05-11T20:49:47.801Z,9.90
2023-05-11T20:52:15.689Z,9.80
2023-05-11T20:54:43.581Z,10.50
2023-05-11T20:57:11.502Z,10.27
2023-05-11T21:02:10.579Z,9.67
2023-05-11T21:04:39.835Z,10.40
2023-05-11T21:07:07.697Z,10.00
2023-05-11T21:09:35.704Z,9.97
2023-05-11T21:12:03.707Z,10.33
2023-05-11T21:14:31.532Z,10.40
2023-05-11T21:16:59.641Z,9.80
2023-05-11T21:19:27.647Z,10.63
2023-05-11T21:21:56.903Z,10.13
2023-05-11T21:24:24.824Z,10.13
2023-05-11T21:26:52.674Z,10.07
2023-05-11T21:29:20.542Z,9.73
2023-05-11T21:31:48.440Z,10.47
2023-05-11T21:34:16.930Z,10.47
2023-05-11T21:36:45.630Z,10.73
2023-05-11T21:39:15.127Z,9.83
2023-05-11T21:41:43.026Z,10.70
2023-05-11T21:44:10.998Z,11.00
2023-05-11T21:46:39.004Z,10.53
2023-05-11T21:49:06.897Z,11.83
2023-05-11T21:51:34.793Z,11.97
2023-05-11T21:54:02.785Z,10.43
2023-05-11T21:56:32.009Z,11.27
2023-05-11T21:58:59.885Z,10.27
2023-05-11T22:01:27.773Z,9.83
2023-05-11T22:03:55.756Z,11.60
2023-05-11T22:06:23.754Z,10.30
2023-05-11T22:08:51.764Z,10.07
2023-05-11T22:11:21.584Z,9.37
2023-05-11T22:13:51.415Z,10.10
2023-05-11T22:16:19.768Z,10.60
2023-05-11T22:18:48.153Z,10.30
2023-05-11T22:21:16.090Z,10.70
2023-05-11T22:23:43.977Z,9.83
2023-05-11T22:26:11.806Z,10.27
2023-05-11T22:28:39.721Z,10.73
2023-05-11T22:31:09.146Z,9.53
2023-05-11T22:33:37.044Z,10.27
2023-05-11T22:36:05.363Z,9.13
2023-05-11T22:38:34.332Z,9.67
2023-05-11T22:41:02.173Z,10.53
2023-05-11T22:43:30.058Z,9.03
2023-05-11T22:45:57.939Z,9.33
2023-05-11T22:48:27.217Z,9.53
2023-05-11T22:50:55.078Z,9.27
2023-05-11T22:53:23.168Z,9.20
2023-05-11T22:55:51.122Z,9.57
2023-05-11T22:58:18.975Z,10.77
2023-05-11T23:00:47.005Z,10.53
2023-05-11T23:03:14.980Z,9.93
2023-05-11T23:05:44.282Z,10.20
2023-05-11T23:08:12.143Z,9.87
2023-05-11T23:10:40.016Z,9.23
2023-05-11T23:13:09.041Z,9.97
2023-05-11T23:15:36.891Z,9.57
2023-05-11T23:18:04.911Z,10.17
2023-05-11T23:20:32.867Z,9.57
2023-05-11T23:23:02.207Z,10.27
2023-05-11T23:25:30.058Z,9.70
2023-05-11T23:27:57.932Z,9.83
2023-05-11T23:30:26.180Z,9.30
2023-05-11T23:32:54.122Z,9.37
2023-05-11T23:35:22.029Z,9.37
2023-05-11T23:37:49.866Z,9.40
2023-05-11T23:40:19.389Z,9.20
2023-05-11T23:42:47.483Z,8.63
2023-05-11T23:45:15.935Z,8.93
2023-05-11T23:47:44.000Z,8.73
2023-05-11T23:50:13.145Z,9.23
2023-05-11T23:52:41.012Z,9.33
2023-05-11T23:55:09.778Z,8.97
2023-05-11T23:57:39.046Z,8.57
